createdAt,value
2022-09-23T00:01:28.831Z,66.30
2022-09-23T00:04:00.292Z,66.35
2022-09-23T00:06:28.540Z,66.57
2022-09-23T00:08:56.764Z,66.24
2022-09-23T00:11:27.697Z,66.45
2022-09-23T00:13:58.541Z,66.54
2022-09-23T00:16:34.148Z,66.49
2022-09-23T00:19:04.629Z,66.51
2022-09-23T00:21:33.191Z,66.69
2022-09-23T00:24:02.488Z,66.49
2022-09-23T00:26:31.074Z,66.47
2022-09-23T00:28:59.382Z,66.79
2022-09-23T00:31:28.445Z,66.72
2022-09-23T00:33:59.446Z,66.66
2022-09-23T00:36:29.441Z,66.88
2022-09-23T00:38:58.085Z,66.67
2022-09-23T00:41:27.342Z,66.80
2022-09-23T00:44:00.264Z,66.74
2022-09-23T00:46:43.181Z,66.83
2022-09-23T00:49:25.394Z,66.86
2022-09-23T00:51:58.684Z,67.00
2022-09-23T00:54:27.954Z,66.84
2022-09-23T00:56:57.689Z,66.97
2022-09-23T00:59:29.110Z,66.92
2022-09-23T01:01:59.137Z,66.83
2022-09-23T01:04:28.872Z,67.02
2022-09-23T01:06:57.213Z,67.22
2022-09-23T01:09:26.124Z,67.01
2022-09-23T01:12:16.183Z,67.21
2022-09-23T01:15:08.772Z,67.03
2022-09-23T01:18:08.398Z,67.21
2022-09-23T01:20:45.593Z,67.27
2022-09-23T01:23:19.494Z,67.32
2022-09-23T01:26:12.226Z,67.05
2022-09-23T01:28:43.267Z,67.30
2022-09-23T01:31:28.438Z,67.38
2022-09-23T01:34:06.562Z,67.53
2022-09-23T01:36:41.564Z,67.50
2022-09-23T01:39:22.860Z,67.60
2022-09-23T01:42:03.015Z,67.61
2022-09-23T01:44:43.784Z,67.60
2022-09-23T01:47:23.096Z,67.57
2022-09-23T01:49:58.075Z,67.63
2022-09-23T01:52:41.813Z,67.57
2022-09-23T01:55:20.107Z,67.41
2022-09-23T01:57:59.026Z,67.62
2022-09-23T02:00:32.213Z,67.69
2022-09-23T02:03:22.174Z,67.94
2022-09-23T02:06:00.621Z,67.75
2022-09-23T02:08:34.867Z,67.80
2022-09-23T02:11:08.436Z,67.90
2022-09-23T02:13:59.195Z,68.12
2022-09-23T02:16:44.805Z,67.90
2022-09-23T02:19:20.358Z,68.15
2022-09-23T02:21:55.615Z,67.93
2022-09-23T02:24:31.365Z,68.15
2022-09-23T02:27:03.830Z,67.89
2022-09-23T02:30:00.486Z,68.03
2022-09-23T02:32:44.208Z,67.89
2022-09-23T02:35:22.727Z,68.01
2022-09-23T02:38:16.144Z,68.28
2022-09-23T02:40:56.665Z,68.36
2022-09-23T02:43:35.700Z,68.45
2022-09-23T02:46:04.960Z,68.35
2022-09-23T02:48:41.597Z,68.32
2022-09-23T02:51:10.607Z,68.33
2022-09-23T02:53:39.742Z,68.49
2022-09-23T02:56:20.381Z,68.39
2022-09-23T02:58:50.222Z,68.51
2022-09-23T03:01:38.584Z,68.55
2022-09-23T03:04:25.992Z,68.48
2022-09-23T03:07:14.525Z,68.66
2022-09-23T03:10:04.238Z,68.62
2022-09-23T03:12:44.848Z,68.55
2022-09-23T03:15:27.090Z,68.71
2022-09-23T03:17:59.578Z,68.64
2022-09-23T03:20:42.746Z,68.61
2022-09-23T03:23:15.425Z,68.65
2022-09-23T03:25:47.495Z,68.75
2022-09-23T03:28:22.130Z,68.85
2022-09-23T03:30:53.081Z,69.01
2022-09-23T03:33:28.823Z,69.01
2022-09-23T03:36:25.797Z,69.10
2022-09-23T03:39:04.124Z,69.12
2022-09-23T03:41:42.118Z,69.10
2022-09-23T03:44:11.958Z,69.02
2022-09-23T03:46:44.155Z,69.03
